sensor_id;sensor_type;location;lat;lon;timestamp;P1;durP1;ratioP1;P2;durP2;ratioP2
3337;SDS011;1682;49.286;10.788;2022-11-20T00:01:28;22.07;;;12.93;;
3337;SDS011;1682;49.286;10.788;2022-11-20T00:03:56;16.40;;;9.60;;
3337;SDS011;1682;49.286;10.788;2022-11-20T00:06:26;19.47;;;12.20;;
3337;SDS011;1682;49.286;10.788;2022-11-20T00:08:53;19.83;;;11.47;;
3337;SDS011;1682;49.286;10.788;2022-11-20T00:11:22;17.83;;;12.37;;
3337;SDS011;1682;49.286;10.788;2022-11-20T00:13:50;32.10;;;19.90;;
3337;SDS011;1682;49.286;10.788;2022-11-20T00:16:18;30.17;;;17.93;;
3337;SDS011;1682;49.286;10.788;2022-11-20T00:18:46;31.03;;;16.67;;
3337;SDS011;1682;49.286;10.788;2022-11-20T00:21:14;49.77;;;24.00;;
3337;SDS011;1682;49.286;10.788;2022-11-20T00:23:42;73.00;;;32.77;;
3337;SDS011;1682;49.286;10.788;2022-11-20T00:26:10;25.73;;;14.60;;
3337;SDS011;1682;49.286;10.788;2022-11-20T00:28:37;21.33;;;12.10;;
3337;SDS011;1682;49.286;10.788;2022-11-20T00:31:05;26.37;;;15.47;;
3337;SDS011;1682;49.286;10.788;2022-11-20T00:33:33;21.33;;;12.47;;
3337;SDS011;1682;49.286;10.788;2022-11-20T00:36:01;22.50;;;13.17;;
3337;SDS011;1682;49.286;10.788;2022-11-20T00:38:28;26.97;;;15.57;;
3337;SDS011;1682;49.286;10.788;2022-11-20T00:40:58;24.50;;;14.60;;
3337;SDS011;1682;49.286;10.788;2022-11-20T00:43:25;18.00;;;12.23;;
3337;SDS011;1682;49.286;10.788;2022-11-20T00:45:57;25.43;;;14.10;;
3337;SDS011;1682;49.286;10.788;2022-11-20T00:48:24;21.40;;;12.37;;
3337;SDS011;1682;49.286;10.788;2022-11-20T00:50:52;40.03;;;19.07;;
3337;SDS011;1682;49.286;10.788;2022-11-20T00:53:19;67.73;;;24.37;;
3337;SDS011;1682;49.286;10.788;2022-11-20T00:55:53;30.77;;;16.57;;
3337;SDS011;1682;49.286;10.788;2022-11-20T00:58:22;23.70;;;13.53;;
3337;SDS011;1682;49.286;10.788;2022-11-20T01:00:49;26.10;;;14.50;;
3337;SDS011;1682;49.286;10.788;2022-11-20T01:03:17;24.10;;;12.50;;
3337;SDS011;1682;49.286;10.788;2022-11-20T01:05:44;17.43;;;11.63;;
3337;SDS011;1682;49.286;10.788;2022-11-20T01:08:11;19.90;;;12.63;;
3337;SDS011;1682;49.286;10.788;2022-11-20T01:10:38;24.90;;;14.83;;
3337;SDS011;1682;49.286;10.788;2022-11-20T01:13:06;35.60;;;19.37;;
3337;SDS011;1682;49.286;10.788;2022-11-20T01:15:52;38.57;;;23.10;;
3337;SDS011;1682;49.286;10.788;2022-11-20T01:18:19;30.90;;;15.13;;
3337;SDS011;1682;49.286;10.788;2022-11-20T01:20:46;31.47;;;13.13;;
3337;SDS011;1682;49.286;10.788;2022-11-20T01:23:13;22.33;;;14.00;;
3337;SDS011;1682;49.286;10.788;2022-11-20T01:25:41;25.30;;;15.80;;
3337;SDS011;1682;49.286;10.788;2022-11-20T01:28:08;23.27;;;13.80;;
3337;SDS011;1682;49.286;10.788;2022-11-20T01:30:35;25.60;;;13.47;;
3337;SDS011;1682;49.286;10.788;2022-11-20T01:33:04;16.47;;;10.77;;
3337;SDS011;1682;49.286;10.788;2022-11-20T01:35:31;22.30;;;12.77;;
3337;SDS011;1682;49.286;10.788;2022-11-20T01:37:58;16.87;;;11.07;;
3337;SDS011;1682;49.286;10.788;2022-11-20T01:40:25;21.33;;;13.47;;
3337;SDS011;1682;49.286;10.788;2022-11-20T01:42:55;19.30;;;11.63;;
3337;SDS011;1682;49.286;10.788;2022-11-20T01:48:31;17.13;;;10.63;;
3337;SDS011;1682;49.286;10.788;2022-11-20T01:51:00;25.67;;;15.30;;
3337;SDS011;1682;49.286;10.788;2022-11-20T01:53:29;28.63;;;13.40;;
3337;SDS011;1682;49.286;10.788;2022-11-20T01:55:58;29.00;;;16.17;;
3337;SDS011;1682;49.286;10.788;2022-11-20T01:58:27;26.60;;;14.10;;
3337;SDS011;1682;49.286;10.788;2022-11-20T02:00:56;32.03;;;13.07;;
3337;SDS011;1682;49.286;10.788;2022-11-20T02:03:24;21.70;;;12.27;;
3337;SDS011;1682;49.286;10.788;2022-11-20T02:05:53;23.00;;;12.67;;
3337;SDS011;1682;49.286;10.788;2022-11-20T02:08:22;21.13;;;11.60;;
3337;SDS011;1682;49.286;10.788;2022-11-20T02:10:50;19.40;;;10.77;;
3337;SDS011;1682;49.286;10.788;2022-11-20T02:13:17;22.50;;;11.93;;
3337;SDS011;1682;49.286;10.788;2022-11-20T02:16:02;18.90;;;11.80;;
3337;SDS011;1682;49.286;10.788;2022-11-20T02:18:30;18.50;;;9.20;;
3337;SDS011;1682;49.286;10.788;2022-11-20T02:21:01;17.20;;;10.13;;
3337;SDS011;1682;49.286;10.788;2022-11-20T02:23:32;16.30;;;8.80;;
3337;SDS011;1682;49.286;10.788;2022-11-20T02:26:02;19.10;;;10.50;;
3337;SDS011;1682;49.286;10.788;2022-11-20T02:28:30;13.00;;;8.57;;
3337;SDS011;1682;49.286;10.788;2022-11-20T02:30:57;17.50;;;10.03;;
3337;SDS011;1682;49.286;10.788;2022-11-20T02:33:25;16.70;;;10.60;;
3337;SDS011;1682;49.286;10.788;2022-11-20T02:35:53;15.23;;;9.90;;
3337;SDS011;1682;49.286;10.788;2022-11-20T02:38:20;15.93;;;8.97;;
3337;SDS011;1682;49.286;10.788;2022-11-20T02:40:47;17.20;;;8.90;;
3337;SDS011;1682;49.286;10.788;2022-11-20T02:43:16;14.00;;;9.20;;
3337;SDS011;1682;49.286;10.788;2022-11-20T02:45:43;16.10;;;10.23;;
3337;SDS011;1682;49.286;10.788;2022-11-20T02:48:11;26.30;;;11.90;;
3337;SDS011;1682;49.286;10.788;2022-11-20T02:50:40;19.40;;;9.97;;
3337;SDS011;1682;49.286;10.788;2022-11-20T02:53:07;16.67;;;9.17;;
3337;SDS011;1682;49.286;10.788;2022-11-20T02:55:35;14.43;;;8.80;;
3337;SDS011;1682;49.286;10.788;2022-11-20T02:58:02;12.03;;;8.57;;
3337;SDS011;1682;49.286;10.788;2022-11-20T03:00:31;14.17;;;8.07;;
3337;SDS011;1682;49.286;10.788;2022-11-20T03:02:58;17.40;;;8.90;;
3337;SDS011;1682;49.286;10.788;2022-11-20T03:05:26;13.77;;;9.17;;
3337;SDS011;1682;49.286;10.788;2022-11-20T03:07:53;14.07;;;8.50;;
3337;SDS011;1682;49.286;10.788;2022-11-20T03:10:20;15.80;;;8.73;;
3337;SDS011;1682;49.286;10.788;2022-11-20T03:12:52;14.53;;;7.60;;
3337;SDS011;1682;49.286;10.788;2022-11-20T03:15:19;18.40;;;9.83;;
3337;SDS011;1682;49.286;10.788;2022-11-20T03:17:47;14.20;;;9.13;;
3337;SDS011;1682;49.286;10.788;2022-11-20T03:20:15;12.27;;;7.40;;
3337;SDS011;1682;49.286;10.788;2022-11-20T03:22:42;12.57;;;8.60;;
3337;SDS011;1682;49.286;10.788;2022-11-20T03:25:09;20.70;;;9.27;;
3337;SDS011;1682;49.286;10.788;2022-11-20T03:27:36;15.27;;;7.90;;
3337;SDS011;1682;49.286;10.788;2022-11-20T03:30:04;15.20;;;8.87;;
3337;SDS011;1682;49.286;10.788;2022-11-20T03:32:31;15.50;;;8.53;;
3337;SDS011;1682;49.286;10.788;2022-11-20T03:35:00;14.27;;;8.33;;
3337;SDS011;1682;49.286;10.788;2022-11-20T03:37:27;12.20;;;8.17;;
3337;SDS011;1682;49.286;10.788;2022-11-20T03:39:54;11.77;;;7.90;;
3337;SDS011;1682;49.286;10.788;2022-11-20T03:42:21;10.90;;;7.50;;
3337;SDS011;1682;49.286;10.788;2022-11-20T03:45:07;14.97;;;8.60;;
3337;SDS011;1682;49.286;10.788;2022-11-20T03:47:34;12.60;;;8.87;;
3337;SDS011;1682;49.286;10.788;2022-11-20T03:50:06;15.33;;;8.90;;
3337;SDS011;1682;49.286;10.788;2022-11-20T03:52:33;14.80;;;8.27;;
3337;SDS011;1682;49.286;10.788;2022-11-20T03:55:00;10.17;;;7.27;;
3337;SDS011;1682;49.286;10.788;2022-11-20T03:57:28;11.67;;;7.60;;
3337;SDS011;1682;49.286;10.788;2022-11-20T03:59:55;12.93;;;9.27;;
3337;SDS011;1682;49.286;10.788;2022-11-20T04:02:22;12.40;;;7.47;;
3337;SDS011;1682;49.286;10.788;2022-11-20T04:04:50;20.97;;;9.00;;
3337;SDS011;1682;49.286;10.788;2022-11-20T04:07:18;14.63;;;9.33;;
3337;SDS011;1682;49.286;10.788;2022-11-20T04:09:46;27.70;;;13.80;;
3337;SDS011;1682;49.286;10.788;2022-11-20T04:12:13;14.83;;;8.60;;
3337;SDS011;1682;49.286;10.788;2022-11-20T04:14:40;11.77;;;7.60;;
3337;SDS011;1682;49.286;10.788;2022-11-20T04:17:08;11.20;;;8.00;;
3337;SDS011;1682;49.286;10.788;2022-11-20T04:19:36;10.10;;;7.20;;
3337;SDS011;1682;49.286;10.788;2022-11-20T04:22:03;15.27;;;8.70;;
3337;SDS011;1682;49.286;10.788;2022-11-20T04:24:31;10.73;;;8.53;;
3337;SDS011;1682;49.286;10.788;2022-11-20T04:27:01;11.50;;;7.63;;
3337;SDS011;1682;49.286;10.788;2022-11-20T04:29:29;9.20;;;6.67;;
3337;SDS011;1682;49.286;10.788;2022-11-20T04:31:56;11.77;;;7.77;;
3337;SDS011;1682;49.286;10.788;2022-11-20T04:34:23;11.10;;;6.70;;
3337;SDS011;1682;49.286;10.788;2022-11-20T04:36:50;9.57;;;6.03;;
3337;SDS011;1682;49.286;10.788;2022-11-20T04:39:17;10.83;;;7.20;;
3337;SDS011;1682;49.286;10.788;2022-11-20T04:41:46;10.17;;;5.80;;
3337;SDS011;1682;49.286;10.788;2022-11-20T04:44:33;17.60;;;7.67;;
3337;SDS011;1682;49.286;10.788;2022-11-20T04:47:00;14.73;;;9.57;;
3337;SDS011;1682;49.286;10.788;2022-11-20T04:49:28;9.97;;;7.10;;
3337;SDS011;1682;49.286;10.788;2022-11-20T04:51:56;10.93;;;6.60;;
3337;SDS011;1682;49.286;10.788;2022-11-20T04:54:23;11.10;;;6.30;;
3337;SDS011;1682;49.286;10.788;2022-11-20T04:56:52;11.77;;;6.67;;
3337;SDS011;1682;49.286;10.788;2022-11-20T04:59:19;8.23;;;7.00;;
3337;SDS011;1682;49.286;10.788;2022-11-20T05:01:46;11.50;;;7.67;;
3337;SDS011;1682;49.286;10.788;2022-11-20T05:04:13;10.37;;;7.63;;
3337;SDS011;1682;49.286;10.788;2022-11-20T05:06:41;10.77;;;6.77;;
3337;SDS011;1682;49.286;10.788;2022-11-20T05:09:08;14.00;;;7.90;;
3337;SDS011;1682;49.286;10.788;2022-11-20T05:11:35;7.70;;;6.67;;
3337;SDS011;1682;49.286;10.788;2022-11-20T05:14:03;8.20;;;6.67;;
3337;SDS011;1682;49.286;10.788;2022-11-20T05:16:31;16.13;;;8.37;;
3337;SDS011;1682;49.286;10.788;2022-11-20T05:19:00;11.20;;;6.83;;
3337;SDS011;1682;49.286;10.788;2022-11-20T05:21:29;15.13;;;8.03;;
3337;SDS011;1682;49.286;10.788;2022-11-20T05:23:56;15.80;;;7.97;;
3337;SDS011;1682;49.286;10.788;2022-11-20T05:26:24;10.90;;;6.50;;
3337;SDS011;1682;49.286;10.788;2022-11-20T05:28:51;16.37;;;8.43;;
3337;SDS011;1682;49.286;10.788;2022-11-20T05:31:21;9.07;;;7.90;;
3337;SDS011;1682;49.286;10.788;2022-11-20T05:33:48;16.77;;;9.90;;
3337;SDS011;1682;49.286;10.788;2022-11-20T05:36:16;15.20;;;9.60;;
3337;SDS011;1682;49.286;10.788;2022-11-20T05:38:43;14.43;;;8.83;;
3337;SDS011;1682;49.286;10.788;2022-11-20T05:41:11;12.13;;;8.37;;
3337;SDS011;1682;49.286;10.788;2022-11-20T05:43:38;12.20;;;7.27;;
3337;SDS011;1682;49.286;10.788;2022-11-20T05:46:06;12.50;;;7.77;;
3337;SDS011;1682;49.286;10.788;2022-11-20T05:48:35;16.80;;;9.30;;
3337;SDS011;1682;49.286;10.788;2022-11-20T05:51:04;15.07;;;8.00;;
3337;SDS011;1682;49.286;10.788;2022-11-20T05:53:31;19.57;;;8.53;;
3337;SDS011;1682;49.286;10.788;2022-11-20T05:55:59;17.40;;;8.10;;
3337;SDS011;1682;49.286;10.788;2022-11-20T05:58:26;15.90;;;9.00;;
3337;SDS011;1682;49.286;10.788;2022-11-20T06:00:54;17.50;;;8.10;;
3337;SDS011;1682;49.286;10.788;2022-11-20T06:03:21;17.30;;;10.27;;
3337;SDS011;1682;49.286;10.788;2022-11-20T06:05:50;19.83;;;10.43;;
3337;SDS011;1682;49.286;10.788;2022-11-20T06:08:17;19.57;;;10.10;;
3337;SDS011;1682;49.286;10.788;2022-11-20T06:10:45;16.00;;;10.10;;
3337;SDS011;1682;49.286;10.788;2022-11-20T06:13:12;15.80;;;8.90;;
3337;SDS011;1682;49.286;10.788;2022-11-20T06:15:39;18.77;;;9.80;;
3337;SDS011;1682;49.286;10.788;2022-11-20T06:18:06;17.00;;;10.33;;
3337;SDS011;1682;49.286;10.788;2022-11-20T06:20:34;16.40;;;9.97;;
3337;SDS011;1682;49.286;10.788;2022-11-20T06:23:02;12.20;;;7.93;;
3337;SDS011;1682;49.286;10.788;2022-11-20T06:25:29;14.90;;;8.57;;
3337;SDS011;1682;49.286;10.788;2022-11-20T06:27:57;17.47;;;10.07;;
3337;SDS011;1682;49.286;10.788;2022-11-20T06:30:24;18.57;;;11.67;;
3337;SDS011;1682;49.286;10.788;2022-11-20T06:32:51;14.43;;;13.03;;
3337;SDS011;1682;49.286;10.788;2022-11-20T06:35:18;12.40;;;10.00;;
3337;SDS011;1682;49.286;10.788;2022-11-20T06:37:46;12.50;;;7.93;;
3337;SDS011;1682;49.286;10.788;2022-11-20T06:40:17;10.47;;;7.60;;
3337;SDS011;1682;49.286;10.788;2022-11-20T06:42:44;16.63;;;8.67;;
3337;SDS011;1682;49.286;10.788;2022-11-20T06:45:12;12.03;;;7.53;;
3337;SDS011;1682;49.286;10.788;2022-11-20T06:47:39;17.53;;;9.60;;
3337;SDS011;1682;49.286;10.788;2022-11-20T06:50:06;13.77;;;9.53;;
3337;SDS011;1682;49.286;10.788;2022-11-20T06:52:33;15.67;;;8.33;;
3337;SDS011;1682;49.286;10.788;2022-11-20T06:55:01;12.63;;;8.90;;
3337;SDS011;1682;49.286;10.788;2022-11-20T06:57:29;15.07;;;8.60;;
3337;SDS011;1682;49.286;10.788;2022-11-20T06:59:57;16.60;;;10.30;;
3337;SDS011;1682;49.286;10.788;2022-11-20T07:02:24;16.87;;;12.10;;
3337;SDS011;1682;49.286;10.788;2022-11-20T07:04:51;15.53;;;10.00;;
3337;SDS011;1682;49.286;10.788;2022-11-20T07:07:18;19.27;;;13.43;;
3337;SDS011;1682;49.286;10.788;2022-11-20T07:09:45;15.70;;;10.17;;
3337;SDS011;1682;49.286;10.788;2022-11-20T07:12:13;11.83;;;9.10;;
3337;SDS011;1682;49.286;10.788;2022-11-20T07:14:41;21.47;;;12.40;;
3337;SDS011;1682;49.286;10.788;2022-11-20T07:17:08;27.67;;;14.90;;
3337;SDS011;1682;49.286;10.788;2022-11-20T07:19:36;21.63;;;16.03;;
3337;SDS011;1682;49.286;10.788;2022-11-20T07:22:03;13.63;;;9.73;;
3337;SDS011;1682;49.286;10.788;2022-11-20T07:24:30;12.73;;;10.23;;
3337;SDS011;1682;49.286;10.788;2022-11-20T07:26:57;17.87;;;9.60;;
3337;SDS011;1682;49.286;10.788;2022-11-20T07:29:24;13.23;;;10.30;;
3337;SDS011;1682;49.286;10.788;2022-11-20T07:31:53;11.07;;;8.20;;
3337;SDS011;1682;49.286;10.788;2022-11-20T07:34:21;13.20;;;8.73;;
3337;SDS011;1682;49.286;10.788;2022-11-20T07:36:48;13.90;;;9.10;;
3337;SDS011;1682;49.286;10.788;2022-11-20T07:39:15;12.20;;;8.80;;
3337;SDS011;1682;49.286;10.788;2022-11-20T07:41:43;13.30;;;9.20;;
3337;SDS011;1682;49.286;10.788;2022-11-20T07:44:10;14.43;;;9.33;;
3337;SDS011;1682;49.286;10.788;2022-11-20T07:46:37;14.47;;;7.10;;
3337;SDS011;1682;49.286;10.788;2022-11-20T07:49:06;8.20;;;6.13;;
3337;SDS011;1682;49.286;10.788;2022-11-20T07:51:33;9.13;;;6.67;;
3337;SDS011;1682;49.286;10.788;2022-11-20T07:54:00;13.43;;;7.60;;
3337;SDS011;1682;49.286;10.788;2022-11-20T07:56:27;18.30;;;8.20;;
3337;SDS011;1682;49.286;10.788;2022-11-20T07:58:55;12.20;;;8.20;;
3337;SDS011;1682;49.286;10.788;2022-11-20T08:01:22;11.90;;;8.77;;
3337;SDS011;1682;49.286;10.788;2022-11-20T08:03:49;14.47;;;8.40;;
3337;SDS011;1682;49.286;10.788;2022-11-20T08:06:18;9.30;;;7.57;;
3337;SDS011;1682;49.286;10.788;2022-11-20T08:08:45;17.07;;;10.70;;
3337;SDS011;1682;49.286;10.788;2022-11-20T08:11:12;14.10;;;9.70;;
3337;SDS011;1682;49.286;10.788;2022-11-20T08:13:57;15.47;;;13.50;;
3337;SDS011;1682;49.286;10.788;2022-11-20T08:16:41;9.63;;;8.47;;
3337;SDS011;1682;49.286;10.788;2022-11-20T08:19:09;12.10;;;10.13;;
3337;SDS011;1682;49.286;10.788;2022-11-20T08:21:37;12.00;;;10.90;;
3337;SDS011;1682;49.286;10.788;2022-11-20T08:24:05;16.53;;;8.53;;
3337;SDS011;1682;49.286;10.788;2022-11-20T08:26:33;12.07;;;9.47;;
3337;SDS011;1682;49.286;10.788;2022-11-20T08:29:02;9.73;;;8.73;;
3337;SDS011;1682;49.286;10.788;2022-11-20T08:31:29;12.83;;;8.70;;
3337;SDS011;1682;49.286;10.788;2022-11-20T08:33:56;14.33;;;12.60;;
3337;SDS011;1682;49.286;10.788;2022-11-20T08:36:24;8.10;;;6.67;;
3337;SDS011;1682;49.286;10.788;2022-11-20T08:38:53;5.33;;;4.80;;
3337;SDS011;1682;49.286;10.788;2022-11-20T08:41:21;6.20;;;5.37;;
3337;SDS011;1682;49.286;10.788;2022-11-20T08:43:54;4.70;;;4.30;;
3337;SDS011;1682;49.286;10.788;2022-11-20T08:46:22;6.10;;;5.03;;
3337;SDS011;1682;49.286;10.788;2022-11-20T08:48:49;5.70;;;5.07;;
3337;SDS011;1682;49.286;10.788;2022-11-20T08:51:17;5.87;;;5.20;;
3337;SDS011;1682;49.286;10.788;2022-11-20T08:53:45;4.13;;;3.73;;
3337;SDS011;1682;49.286;10.788;2022-11-20T08:56:15;2.80;;;2.43;;
3337;SDS011;1682;49.286;10.788;2022-11-20T08:58:42;2.40;;;2.20;;
3337;SDS011;1682;49.286;10.788;2022-11-20T09:01:10;2.57;;;2.40;;
3337;SDS011;1682;49.286;10.788;2022-11-20T09:03:37;6.77;;;4.90;;
3337;SDS011;1682;49.286;10.788;2022-11-20T09:06:05;3.63;;;3.10;;
3337;SDS011;1682;49.286;10.788;2022-11-20T09:08:33;4.70;;;4.27;;
3337;SDS011;1682;49.286;10.788;2022-11-20T09:11:01;3.30;;;3.00;;
3337;SDS011;1682;49.286;10.788;2022-11-20T09:13:30;10.53;;;9.20;;
3337;SDS011;1682;49.286;10.788;2022-11-20T09:15:58;7.53;;;5.83;;
3337;SDS011;1682;49.286;10.788;2022-11-20T09:18:26;4.63;;;4.20;;
3337;SDS011;1682;49.286;10.788;2022-11-20T09:20:56;9.27;;;8.47;;
3337;SDS011;1682;49.286;10.788;2022-11-20T09:23:23;8.90;;;8.27;;
3337;SDS011;1682;49.286;10.788;2022-11-20T09:25:51;6.20;;;5.60;;
3337;SDS011;1682;49.286;10.788;2022-11-20T09:28:24;8.07;;;7.27;;
3337;SDS011;1682;49.286;10.788;2022-11-20T09:30:53;5.00;;;4.10;;
3337;SDS011;1682;49.286;10.788;2022-11-20T09:33:20;4.43;;;3.93;;
3337;SDS011;1682;49.286;10.788;2022-11-20T09:35:47;4.20;;;3.90;;
3337;SDS011;1682;49.286;10.788;2022-11-20T09:38:14;3.97;;;3.67;;
3337;SDS011;1682;49.286;10.788;2022-11-20T09:40:44;6.07;;;4.20;;
3337;SDS011;1682;49.286;10.788;2022-11-20T09:43:12;6.23;;;5.63;;
3337;SDS011;1682;49.286;10.788;2022-11-20T09:48:36;4.73;;;4.20;;
3337;SDS011;1682;49.286;10.788;2022-11-20T09:51:08;4.20;;;3.20;;
3337;SDS011;1682;49.286;10.788;2022-11-20T09:53:41;3.70;;;3.40;;
3337;SDS011;1682;49.286;10.788;2022-11-20T09:56:13;3.27;;;3.03;;
3337;SDS011;1682;49.286;10.788;2022-11-20T09:58:41;3.97;;;3.60;;
3337;SDS011;1682;49.286;10.788;2022-11-20T10:01:10;5.07;;;4.50;;
3337;SDS011;1682;49.286;10.788;2022-11-20T10:03:42;4.23;;;3.93;;
3337;SDS011;1682;49.286;10.788;2022-11-20T10:06:12;4.17;;;3.63;;
3337;SDS011;1682;49.286;10.788;2022-11-20T10:08:41;5.77;;;3.60;;
3337;SDS011;1682;49.286;10.788;2022-11-20T10:11:11;4.20;;;3.27;;
3337;SDS011;1682;49.286;10.788;2022-11-20T10:13:43;5.20;;;4.07;;
3337;SDS011;1682;49.286;10.788;2022-11-20T10:16:17;8.70;;;4.00;;
3337;SDS011;1682;49.286;10.788;2022-11-20T10:18:51;3.80;;;3.60;;
3337;SDS011;1682;49.286;10.788;2022-11-20T10:21:23;3.47;;;3.17;;
3337;SDS011;1682;49.286;10.788;2022-11-20T10:26:39;6.27;;;5.27;;
3337;SDS011;1682;49.286;10.788;2022-11-20T10:29:11;4.00;;;3.70;;
3337;SDS011;1682;49.286;10.788;2022-11-20T10:31:40;6.97;;;3.87;;
3337;SDS011;1682;49.286;10.788;2022-11-20T10:34:12;4.50;;;3.30;;
3337;SDS011;1682;49.286;10.788;2022-11-20T10:36:44;3.30;;;3.00;;
3337;SDS011;1682;49.286;10.788;2022-11-20T10:39:15;4.00;;;2.93;;
3337;SDS011;1682;49.286;10.788;2022-11-20T10:41:44;3.30;;;2.27;;
3337;SDS011;1682;49.286;10.788;2022-11-20T10:44:14;3.53;;;3.23;;
3337;SDS011;1682;49.286;10.788;2022-11-20T10:47:03;3.50;;;3.30;;
3337;SDS011;1682;49.286;10.788;2022-11-20T10:49:32;3.40;;;2.33;;
3337;SDS011;1682;49.286;10.788;2022-11-20T10:52:02;3.00;;;2.80;;
3337;SDS011;1682;49.286;10.788;2022-11-20T10:54:32;2.53;;;2.37;;
3337;SDS011;1682;49.286;10.788;2022-11-20T10:57:03;2.90;;;2.70;;
3337;SDS011;1682;49.286;10.788;2022-11-20T10:59:35;3.10;;;2.80;;
3337;SDS011;1682;49.286;10.788;2022-11-20T11:02:15;2.90;;;2.70;;
3337;SDS011;1682;49.286;10.788;2022-11-20T11:04:45;4.47;;;3.60;;
3337;SDS011;1682;49.286;10.788;2022-11-20T11:07:15;3.53;;;3.10;;
3337;SDS011;1682;49.286;10.788;2022-11-20T11:09:43;3.73;;;2.87;;
3337;SDS011;1682;49.286;10.788;2022-11-20T11:12:10;3.53;;;3.23;;
3337;SDS011;1682;49.286;10.788;2022-11-20T11:14:42;3.10;;;2.90;;
3337;SDS011;1682;49.286;10.788;2022-11-20T11:17:18;2.90;;;2.70;;
3337;SDS011;1682;49.286;10.788;2022-11-20T11:19:57;3.47;;;3.17;;
3337;SDS011;1682;49.286;10.788;2022-11-20T11:22:25;3.30;;;3.00;;
3337;SDS011;1682;49.286;10.788;2022-11-20T11:24:52;2.50;;;2.40;;
3337;SDS011;1682;49.286;10.788;2022-11-20T11:27:19;2.80;;;2.60;;
3337;SDS011;1682;49.286;10.788;2022-11-20T11:29:47;4.73;;;2.70;;
3337;SDS011;1682;49.286;10.788;2022-11-20T11:32:18;3.37;;;3.17;;
3337;SDS011;1682;49.286;10.788;2022-11-20T11:34:59;9.57;;;5.43;;
3337;SDS011;1682;49.286;10.788;2022-11-20T11:37:26;4.73;;;3.80;;
3337;SDS011;1682;49.286;10.788;2022-11-20T11:39:56;12.10;;;4.70;;
3337;SDS011;1682;49.286;10.788;2022-11-20T11:42:23;3.87;;;3.53;;
3337;SDS011;1682;49.286;10.788;2022-11-20T11:44:51;3.30;;;3.10;;
3337;SDS011;1682;49.286;10.788;2022-11-20T11:47:33;2.80;;;2.60;;
3337;SDS011;1682;49.286;10.788;2022-11-20T11:52:40;4.00;;;2.70;;
3337;SDS011;1682;49.286;10.788;2022-11-20T11:55:09;5.20;;;4.70;;
3337;SDS011;1682;49.286;10.788;2022-11-20T11:57:41;6.10;;;4.20;;
3337;SDS011;1682;49.286;10.788;2022-11-20T12:00:11;3.30;;;3.00;;
3337;SDS011;1682;49.286;10.788;2022-11-20T12:02:42;4.37;;;3.97;;
3337;SDS011;1682;49.286;10.788;2022-11-20T12:05:16;3.57;;;3.27;;
3337;SDS011;1682;49.286;10.788;2022-11-20T12:07:46;4.77;;;4.37;;
3337;SDS011;1682;49.286;10.788;2022-11-20T12:10:17;4.87;;;4.47;;
3337;SDS011;1682;49.286;10.788;2022-11-20T12:12:48;10.13;;;7.73;;
3337;SDS011;1682;49.286;10.788;2022-11-20T12:15:22;6.30;;;4.57;;
3337;SDS011;1682;49.286;10.788;2022-11-20T12:17:50;4.77;;;4.10;;
3337;SDS011;1682;49.286;10.788;2022-11-20T12:20:17;8.90;;;7.97;;
3337;SDS011;1682;49.286;10.788;2022-11-20T12:22:47;6.53;;;5.30;;
3337;SDS011;1682;49.286;10.788;2022-11-20T12:25:19;5.00;;;4.60;;
3337;SDS011;1682;49.286;10.788;2022-11-20T12:27:58;2.13;;;1.90;;
3337;SDS011;1682;49.286;10.788;2022-11-20T12:30:29;2.73;;;2.50;;
3337;SDS011;1682;49.286;10.788;2022-11-20T12:33:04;2.03;;;1.60;;
3337;SDS011;1682;49.286;10.788;2022-11-20T12:35:42;6.23;;;3.57;;
3337;SDS011;1682;49.286;10.788;2022-11-20T12:40:56;4.53;;;3.40;;
3337;SDS011;1682;49.286;10.788;2022-11-20T12:43:27;3.03;;;2.73;;
3337;SDS011;1682;49.286;10.788;2022-11-20T12:46:16;4.67;;;2.70;;
3337;SDS011;1682;49.286;10.788;2022-11-20T12:48:52;4.90;;;4.17;;
3337;SDS011;1682;49.286;10.788;2022-11-20T12:51:30;5.10;;;4.60;;
3337;SDS011;1682;49.286;10.788;2022-11-20T12:54:08;4.50;;;4.10;;
3337;SDS011;1682;49.286;10.788;2022-11-20T12:56:43;6.17;;;4.20;;
3337;SDS011;1682;49.286;10.788;2022-11-20T13:02:09;4.27;;;3.87;;
3337;SDS011;1682;49.286;10.788;2022-11-20T13:07:26;11.23;;;8.13;;
3337;SDS011;1682;49.286;10.788;2022-11-20T13:09:54;5.20;;;4.70;;
3337;SDS011;1682;49.286;10.788;2022-11-20T13:12:24;10.90;;;5.47;;
3337;SDS011;1682;49.286;10.788;2022-11-20T13:14:55;3.60;;;3.40;;
3337;SDS011;1682;49.286;10.788;2022-11-20T13:17:28;4.80;;;3.27;;
3337;SDS011;1682;49.286;10.788;2022-11-20T13:19:58;3.63;;;3.33;;
3337;SDS011;1682;49.286;10.788;2022-11-20T13:22:26;5.17;;;4.67;;
3337;SDS011;1682;49.286;10.788;2022-11-20T13:24:54;5.83;;;5.33;;
3337;SDS011;1682;49.286;10.788;2022-11-20T13:27:21;6.30;;;5.03;;
3337;SDS011;1682;49.286;10.788;2022-11-20T13:30:00;7.77;;;6.13;;
3337;SDS011;1682;49.286;10.788;2022-11-20T13:32:28;6.43;;;5.70;;
3337;SDS011;1682;49.286;10.788;2022-11-20T13:34:58;9.07;;;7.67;;
3337;SDS011;1682;49.286;10.788;2022-11-20T13:37:28;13.93;;;7.07;;
3337;SDS011;1682;49.286;10.788;2022-11-20T13:40:05;7.50;;;5.67;;
3337;SDS011;1682;49.286;10.788;2022-11-20T13:42:33;6.67;;;5.90;;
3337;SDS011;1682;49.286;10.788;2022-11-20T13:45:08;6.37;;;5.83;;
3337;SDS011;1682;49.286;10.788;2022-11-20T13:47:36;20.50;;;4.50;;
3337;SDS011;1682;49.286;10.788;2022-11-20T13:50:04;4.27;;;3.97;;
3337;SDS011;1682;49.286;10.788;2022-11-20T13:52:39;3.60;;;3.30;;
3337;SDS011;1682;49.286;10.788;2022-11-20T13:55:12;3.20;;;3.00;;
3337;SDS011;1682;49.286;10.788;2022-11-20T13:57:49;3.03;;;2.70;;
3337;SDS011;1682;49.286;10.788;2022-11-20T14:00:23;3.60;;;3.30;;
3337;SDS011;1682;49.286;10.788;2022-11-20T14:02:53;2.77;;;2.53;;
3337;SDS011;1682;49.286;10.788;2022-11-20T14:05:25;3.53;;;3.23;;
3337;SDS011;1682;49.286;10.788;2022-11-20T14:07:52;3.73;;;3.17;;
3337;SDS011;1682;49.286;10.788;2022-11-20T14:10:22;3.90;;;3.40;;
3337;SDS011;1682;49.286;10.788;2022-11-20T14:12:50;7.63;;;2.67;;
3337;SDS011;1682;49.286;10.788;2022-11-20T14:15:26;2.60;;;1.80;;
3337;SDS011;1682;49.286;10.788;2022-11-20T14:17:53;5.13;;;3.80;;
3337;SDS011;1682;49.286;10.788;2022-11-20T14:20:21;3.20;;;2.77;;
3337;SDS011;1682;49.286;10.788;2022-11-20T14:22:50;3.37;;;3.07;;
3337;SDS011;1682;49.286;10.788;2022-11-20T14:25:19;4.20;;;3.50;;
3337;SDS011;1682;49.286;10.788;2022-11-20T14:27:50;3.53;;;3.23;;
3337;SDS011;1682;49.286;10.788;2022-11-20T14:30:19;2.90;;;2.70;;
3337;SDS011;1682;49.286;10.788;2022-11-20T14:32:51;4.13;;;3.63;;
3337;SDS011;1682;49.286;10.788;2022-11-20T14:35:20;5.53;;;4.20;;
3337;SDS011;1682;49.286;10.788;2022-11-20T14:37:48;8.80;;;4.40;;
3337;SDS011;1682;49.286;10.788;2022-11-20T14:40:22;3.43;;;3.13;;
3337;SDS011;1682;49.286;10.788;2022-11-20T14:42:50;2.20;;;1.97;;
3337;SDS011;1682;49.286;10.788;2022-11-20T14:45:17;2.90;;;2.73;;
3337;SDS011;1682;49.286;10.788;2022-11-20T14:47:45;4.03;;;2.50;;
3337;SDS011;1682;49.286;10.788;2022-11-20T14:50:15;9.00;;;4.17;;
3337;SDS011;1682;49.286;10.788;2022-11-20T14:52:57;2.63;;;2.43;;
3337;SDS011;1682;49.286;10.788;2022-11-20T14:55:26;2.90;;;2.70;;
3337;SDS011;1682;49.286;10.788;2022-11-20T14:57:57;2.63;;;2.43;;
3337;SDS011;1682;49.286;10.788;2022-11-20T15:00:25;2.53;;;2.33;;
3337;SDS011;1682;49.286;10.788;2022-11-20T15:02:52;2.40;;;2.30;;
3337;SDS011;1682;49.286;10.788;2022-11-20T15:05:21;1.90;;;1.80;;
3337;SDS011;1682;49.286;10.788;2022-11-20T15:07:50;2.73;;;2.53;;
3337;SDS011;1682;49.286;10.788;2022-11-20T15:10:22;3.27;;;3.07;;
3337;SDS011;1682;49.286;10.788;2022-11-20T15:12:50;4.73;;;2.90;;
3337;SDS011;1682;49.286;10.788;2022-11-20T15:15:19;4.10;;;3.80;;
3337;SDS011;1682;49.286;10.788;2022-11-20T15:17:47;3.33;;;3.00;;
3337;SDS011;1682;49.286;10.788;2022-11-20T15:20:15;2.33;;;2.07;;
3337;SDS011;1682;49.286;10.788;2022-11-20T15:22:44;4.90;;;3.70;;